Time;durP1;ratioP1;P1;durP2;ratioP2;P2;SDS_P1;SDS_P2;PMS_P1;PMS_P2;Temp;Humidity;BMP_temperature;BMP_pressure;BME280_temperature;BME280_humidity;BME280_pressure;Samples;Min_cycle;Max_cycle;Signal;HPM_P1;HPM_P2
2023/08/16 00:00:57;;;;;;;4.75;3.97;;;;;;;-147.16;100.00;58666.56;7397818;19;20074;-68
2023/08/16 00:03:27;;;;;;;5.28;4.13;;;;;;;-147.16;100.00;58666.56;7397372;19;20010;-69
2023/08/16 00:05:58;;;;;;;8.27;4.93;;;;;;;-147.16;100.00;58666.56;7397211;19;20010;-68
2023/08/16 00:08:26;;;;;;;5.00;4.43;;;;;;;-147.16;100.00;58666.56;7397715;19;20019;-69
2023/08/16 00:10:55;;;;;;;10.07;4.50;;;;;;;-147.16;100.00;58666.56;7398924;19;20086;-69
2023/08/16 00:13:23;;;;;;;6.70;4.13;;;;;;;-147.16;100.00;58666.56;7397324;19;20014;-70
2023/08/16 00:15:52;;;;;;;4.85;4.22;;;;;;;-147.16;100.00;58666.56;7396948;19;20019;-69
2023/08/16 00:18:27;;;;;;;5.30;4.47;;;;;;;-147.16;100.00;58666.56;7397497;19;20023;-69
2023/08/16 00:20:58;;;;;;;5.13;4.63;;;;;;;-147.16;100.00;58666.56;7397364;19;20027;-69
2023/08/16 00:23:27;;;;;;;6.53;3.90;;;;;;;-147.16;100.00;58666.56;7396479;19;20083;-69
2023/08/16 00:25:56;;;;;;;5.55;4.30;;;;;;;-147.16;100.00;58666.56;7396775;19;20010;-69
2023/08/16 00:28:25;;;;;;;5.10;4.20;;;;;;;-147.16;100.00;58666.56;7395229;19;20571;-69
2023/08/16 00:30:54;;;;;;;5.82;3.80;;;;;;;-147.16;100.00;58666.56;7396409;19;20014;-69
2023/08/16 00:33:23;;;;;;;5.28;4.00;;;;;;;-147.16;100.00;58666.56;7396312;19;20015;-69
2023/08/16 00:35:53;;;;;;;5.43;4.22;;;;;;;-147.16;100.00;58666.56;7395891;19;20365;-70
2023/08/16 00:38:24;;;;;;;5.18;3.85;;;;;;;-147.16;100.00;58666.56;7396090;19;20074;-68
2023/08/16 00:40:54;;;;;;;4.28;3.97;;;;;;;-147.16;100.00;58666.56;7398727;19;20010;-69
2023/08/16 00:43:22;;;;;;;5.00;4.45;;;;;;;-147.16;100.00;58666.56;7397937;19;20367;-69
2023/08/16 00:45:51;;;;;;;6.15;4.30;;;;;;;-147.16;100.00;58666.56;7397835;19;20014;-69
2023/08/16 00:48:21;;;;;;;7.25;4.50;;;;;;;-147.16;100.00;58666.56;7395798;19;20027;-69
2023/08/16 00:50:50;;;;;;;5.97;4.18;;;;;;;-147.16;100.00;58666.56;7396012;19;20078;-69
2023/08/16 00:53:20;;;;;;;4.47;4.07;;;;;;;-147.16;100.00;58666.56;7398016;19;20018;-69
2023/08/16 00:55:51;;;;;;;4.78;4.18;;;;;;;-147.16;100.00;58666.56;7395686;19;20078;-69
2023/08/16 00:58:20;;;;;;;7.85;4.65;;;;;;;-147.16;100.00;58666.56;7396154;19;20027;-69
2023/08/16 01:00:49;;;;;;;5.85;4.47;;;;;;;-147.16;100.00;58666.56;7395948;19;20027;-69
2023/08/16 01:03:17;;;;;;;7.53;4.78;;;;;;;-147.16;100.00;58666.56;7395844;19;20070;-68
2023/08/16 01:05:46;;;;;;;6.60;4.43;;;;;;;-147.16;100.00;58666.56;7395814;19;20014;-68
2023/08/16 01:08:15;;;;;;;5.28;4.30;;;;;;;-147.16;100.00;58666.56;7395544;19;20010;-68
2023/08/16 01:10:56;;;;;;;7.05;4.63;;;;;;;-147.16;100.00;58666.56;7396014;19;20015;-70
2023/08/16 01:13:29;;;;;;;6.80;4.45;;;;;;;-147.16;100.00;58666.56;7397017;19;20015;-69
2023/08/16 01:16:01;;;;;;;5.93;4.47;;;;;;;-147.16;100.00;58666.56;7397766;19;20014;-69
2023/08/16 01:18:32;;;;;;;6.30;4.50;;;;;;;-147.16;100.00;58666.56;7395435;19;20014;-69
2023/08/16 01:21:01;;;;;;;6.45;4.80;;;;;;;-147.16;100.00;58666.56;7396486;19;20014;-69
2023/08/16 01:23:41;;;;;;;4.95;4.53;;;;;;;-147.16;100.00;58666.56;7394946;19;20347;-69
2023/08/16 01:26:27;;;;;;;9.02;4.72;;;;;;;-147.16;100.00;58666.56;7394956;19;20385;-69
2023/08/16 01:28:57;;;;;;;5.90;4.60;;;;;;;-147.16;100.00;58666.56;7394937;19;20006;-69
2023/08/16 01:31:25;;;;;;;4.90;4.50;;;;;;;-147.16;100.00;58666.56;7395188;19;20014;-70
2023/08/16 01:33:54;;;;;;;5.05;4.63;;;;;;;-147.16;100.00;58666.56;7396654;19;20011;-70
2023/08/16 01:36:22;;;;;;;6.15;5.30;;;;;;;-147.16;100.00;58666.56;7394550;19;20017;-69
2023/08/16 01:38:52;;;;;;;5.30;4.40;;;;;;;-147.16;100.00;58666.56;7391519;19;20011;-69
2023/08/16 01:41:27;;;;;;;6.43;4.75;;;;;;;-147.16;100.00;58666.56;7396943;19;20006;-69
2023/08/16 01:43:59;;;;;;;4.85;4.45;;;;;;;-147.16;100.00;58666.56;7394374;19;20014;-70
2023/08/16 01:46:28;;;;;;;9.90;5.25;;;;;;;-147.16;100.00;58666.56;7396750;19;20082;-69
2023/08/16 01:49:00;;;;;;;5.82;4.43;;;;;;;-147.16;100.00;58666.56;7394454;19;20033;-69
2023/08/16 01:51:29;;;;;;;6.60;4.53;;;;;;;-147.16;100.00;58666.56;7395278;19;20014;-70
2023/08/16 01:53:58;;;;;;;5.63;5.10;;;;;;;-147.16;100.00;58666.56;7394769;19;20028;-70
2023/08/16 01:56:27;;;;;;;4.72;4.15;;;;;;;-147.16;100.00;58666.56;7396280;19;20014;-70
2023/08/16 01:59:12;;;;;;;6.60;4.57;;;;;;;-147.16;100.00;58666.56;7394492;19;20490;-70
2023/08/16 02:01:41;;;;;;;7.18;5.55;;;;;;;-147.16;100.00;58666.56;7397444;19;20014;-70
2023/08/16 02:04:09;;;;;;;6.88;5.03;;;;;;;-147.16;100.00;58666.56;7395386;19;20015;-70
2023/08/16 02:06:38;;;;;;;5.63;4.53;;;;;;;-147.16;100.00;58666.56;7394507;19;20473;-70
2023/08/16 02:09:06;;;;;;;5.50;4.50;;;;;;;-147.16;100.00;58666.56;7395462;19;20503;-69
2023/08/16 02:11:35;;;;;;;5.45;4.95;;;;;;;-147.16;100.00;58666.56;7393927;19;20086;-68
2023/08/16 02:14:06;;;;;;;6.63;4.82;;;;;;;-147.16;100.00;58666.56;7393819;19;20028;-69
2023/08/16 02:16:35;;;;;;;10.25;4.85;;;;;;;-147.16;100.00;58666.56;7395730;19;20018;-71
2023/08/16 02:19:03;;;;;;;5.93;4.80;;;;;;;-147.16;100.00;58666.56;7396458;19;20011;-69
2023/08/16 02:21:32;;;;;;;5.55;4.63;;;;;;;-147.16;100.00;58666.56;7393867;19;20010;-68
2023/08/16 02:24:00;;;;;;;5.97;4.10;;;;;;;-147.16;100.00;58666.56;7393568;19;20014;-69
2023/08/16 02:26:29;;;;;;;7.97;5.35;;;;;;;-147.16;100.00;58666.56;7395247;19;20062;-70
2023/08/16 02:28:57;;;;;;;5.28;4.47;;;;;;;-147.16;100.00;58666.56;7393432;19;20082;-69
2023/08/16 02:31:28;;;;;;;4.55;4.03;;;;;;;-147.16;100.00;58666.56;7393308;19;20103;-69
2023/08/16 02:33:57;;;;;;;5.13;3.95;;;;;;;-147.16;100.00;58666.56;7393433;19;20455;-69
2023/08/16 02:36:25;;;;;;;4.63;4.15;;;;;;;-147.16;100.00;58666.56;7395065;19;20045;-68
2023/08/16 02:38:54;;;;;;;5.50;3.83;;;;;;;-147.16;100.00;58666.56;7393135;19;20078;-69
2023/08/16 02:41:22;;;;;;;4.88;4.28;;;;;;;-147.16;100.00;58666.56;7394351;19;20541;-70
2023/08/16 02:43:51;;;;;;;6.50;4.03;;;;;;;-147.16;100.00;58666.56;7393051;19;20031;-69
2023/08/16 02:46:19;;;;;;;5.68;4.15;;;;;;;-147.16;100.00;58666.56;7394796;19;20419;-69
2023/08/16 02:48:50;;;;;;;4.40;3.88;;;;;;;-147.16;100.00;58666.56;7393131;19;20517;-69
2023/08/16 02:51:19;;;;;;;4.53;3.45;;;;;;;-147.16;100.00;58666.56;7397320;19;20080;-70
2023/08/16 02:53:47;;;;;;;5.20;3.67;;;;;;;-147.16;100.00;58666.56;7399414;19;20346;-69
2023/08/16 02:56:16;;;;;;;4.30;3.45;;;;;;;-147.16;100.00;58666.56;7402972;19;20428;-69
2023/08/16 02:58:44;;;;;;;4.60;4.00;;;;;;;-147.16;100.00;58666.56;7401940;19;20480;-69
2023/08/16 03:01:14;;;;;;;4.38;3.80;;;;;;;-147.16;100.00;58666.56;7403772;19;20010;-70
2023/08/16 03:03:45;;;;;;;5.60;3.85;;;;;;;-147.16;100.00;58666.56;7401660;19;20014;-69
2023/08/16 03:06:16;;;;;;;5.25;3.80;;;;;;;-147.16;100.00;58666.56;7402550;19;20082;-69
2023/08/16 03:08:44;;;;;;;5.05;3.63;;;;;;;-147.16;100.00;58666.56;7398709;19;20362;-69
2023/08/16 03:11:14;;;;;;;4.40;3.70;;;;;;;-147.16;100.00;58666.56;7399109;19;20018;-70
2023/08/16 03:13:42;;;;;;;5.60;4.20;;;;;;;-147.16;100.00;58666.56;7401266;19;20371;-70
2023/08/16 03:16:11;;;;;;;6.15;3.95;;;;;;;-147.16;100.00;58666.56;7398350;19;20028;-69
2023/08/16 03:18:39;;;;;;;4.25;3.40;;;;;;;-147.16;100.00;58666.56;7399306;19;20070;-70
2023/08/16 03:21:08;;;;;;;5.90;3.65;;;;;;;-147.16;100.00;58666.56;7398790;19;20074;-70
2023/08/16 03:23:39;;;;;;;3.72;3.30;;;;;;;-147.16;100.00;58666.56;7400381;19;20090;-70
2023/08/16 03:26:07;;;;;;;6.68;4.70;;;;;;;-147.16;100.00;58666.56;7398754;19;20015;-70
2023/08/16 03:28:36;;;;;;;3.88;3.50;;;;;;;-147.16;100.00;58666.56;7399022;19;20577;-70
2023/08/16 03:31:09;;;;;;;4.47;3.95;;;;;;;-147.16;100.00;58666.56;7399428;19;20018;-70
2023/08/16 03:33:37;;;;;;;4.30;3.50;;;;;;;-147.16;100.00;58666.56;7401130;19;20027;-69
2023/08/16 03:36:07;;;;;;;4.20;3.80;;;;;;;-147.16;100.00;58666.56;7400699;19;20445;-69
2023/08/16 03:38:35;;;;;;;4.80;3.83;;;;;;;-147.16;100.00;58666.56;7399365;19;20473;-70
2023/08/16 03:41:07;;;;;;;5.90;4.85;;;;;;;-147.16;100.00;58666.56;7400576;19;20473;-70
2023/08/16 03:43:36;;;;;;;5.75;4.25;;;;;;;-147.16;100.00;58666.56;7398388;19;20006;-68
2023/08/16 03:46:05;;;;;;;7.60;5.50;;;;;;;-147.16;100.00;58666.56;7398269;19;20014;-69
2023/08/16 03:48:34;;;;;;;5.80;4.57;;;;;;;-147.16;100.00;58666.56;7397811;19;20377;-68
2023/08/16 03:51:02;;;;;;;5.05;4.53;;;;;;;-147.16;100.00;58666.56;7397567;19;20089;-71
2023/08/16 03:53:31;;;;;;;5.38;4.38;;;;;;;-147.16;100.00;58666.56;7400248;19;20380;-69
2023/08/16 03:56:00;;;;;;;7.20;4.82;;;;;;;-147.16;100.00;58666.56;7398849;19;20078;-69
2023/08/16 03:58:32;;;;;;;6.03;4.78;;;;;;;-147.16;100.00;58666.56;7398276;19;20022;-71
2023/08/16 04:01:00;;;;;;;6.18;4.90;;;;;;;-147.16;100.00;58666.56;7400848;19;20011;-70
2023/08/16 04:03:29;;;;;;;7.43;6.57;;;;;;;-147.16;100.00;58666.56;7395117;19;20006;-70
2023/08/16 04:05:57;;;;;;;7.78;6.65;;;;;;;-147.16;100.00;58666.56;7397090;19;20197;-69
2023/08/16 04:08:26;;;;;;;8.38;7.35;;;;;;;-147.16;100.00;58666.56;7397793;19;20022;-70
2023/08/16 04:10:54;;;;;;;8.85;7.63;;;;;;;-147.16;100.00;58666.56;7396970;19;20010;-69
2023/08/16 04:13:22;;;;;;;10.88;8.82;;;;;;;-147.16;100.00;58666.56;7399351;19;20011;-70
2023/08/16 04:15:53;;;;;;;12.88;9.75;;;;;;;-147.16;100.00;58666.56;7397694;19;20019;-69
2023/08/16 04:18:22;;;;;;;11.25;10.05;;;;;;;-147.16;100.00;58666.56;7397256;19;20027;-69
2023/08/16 04:20:50;;;;;;;12.20;10.35;;;;;;;-147.16;100.00;58666.56;7397775;19;20014;-69
2023/08/16 04:23:19;;;;;;;14.73;11.32;;;;;;;-147.16;100.00;58666.56;7397022;19;20394;-70
2023/08/16 04:25:47;;;;;;;14.27;10.90;;;;;;;-147.16;100.00;58666.56;7396877;19;20030;-69
2023/08/16 04:28:16;;;;;;;12.43;11.10;;;;;;;-147.16;100.00;58666.56;7397515;19;20031;-69
2023/08/16 04:30:44;;;;;;;12.15;10.98;;;;;;;-147.16;100.00;58666.56;7396812;19;20045;-69
2023/08/16 04:33:16;;;;;;;12.80;11.38;;;;;;;-147.16;100.00;58666.56;7396612;19;20070;-69
2023/08/16 04:35:44;;;;;;;13.02;11.73;;;;;;;-147.16;100.00;58666.56;7397036;19;20117;-69
2023/08/16 04:38:14;;;;;;;14.13;12.57;;;;;;;-147.16;100.00;58666.56;7397737;19;20014;-69
2023/08/16 04:40:43;;;;;;;13.05;11.73;;;;;;;-147.16;100.00;58666.56;7398623;19;20022;-70
2023/08/16 04:43:11;;;;;;;16.98;12.63;;;;;;;-147.16;100.00;58666.56;7397881;19;20481;-69
2023/08/16 04:45:40;;;;;;;14.43;12.68;;;;;;;-147.16;100.00;58666.56;7396644;19;20010;-69
2023/08/16 04:48:08;;;;;;;13.40;11.43;;;;;;;-147.16;100.00;58666.56;7397055;19;20074;-69
2023/08/16 04:50:39;;;;;;;13.05;11.63;;;;;;;-147.16;100.00;58666.56;7396271;19;20018;-69
2023/08/16 04:53:08;;;;;;;14.23;12.43;;;;;;;-147.16;100.00;58666.56;7398387;19;20037;-69
2023/08/16 04:55:36;;;;;;;13.75;11.88;;;;;;;-147.16;100.00;58666.56;7398083;19;20093;-69
2023/08/16 04:58:05;;;;;;;14.43;12.88;;;;;;;-147.16;100.00;58666.56;7396295;19;20014;-69
2023/08/16 05:00:34;;;;;;;15.23;12.93;;;;;;;-147.16;100.00;58666.56;7396032;19;20018;-69
2023/08/16 05:03:03;;;;;;;13.57;12.10;;;;;;;-147.16;100.00;58666.56;7395613;19;20018;-69
2023/08/16 05:05:31;;;;;;;12.98;11.52;;;;;;;-147.16;100.00;58666.56;7395297;19;20021;-69
2023/08/16 05:08:02;;;;;;;14.90;12.32;;;;;;;-147.16;100.00;58666.56;7396467;19;20082;-69
2023/08/16 05:10:31;;;;;;;13.68;11.32;;;;;;;-147.16;100.00;58666.56;7395870;19;20031;-69
2023/08/16 05:12:59;;;;;;;12.27;11.05;;;;;;;-147.16;100.00;58666.56;7396678;19;20081;-69
2023/08/16 05:15:27;;;;;;;12.02;10.82;;;;;;;-147.16;100.00;58666.56;7395782;19;20517;-69
2023/08/16 05:17:56;;;;;;;12.43;11.13;;;;;;;-147.16;100.00;58666.56;7395584;19;20014;-69
2023/08/16 05:20:24;;;;;;;12.93;10.50;;;;;;;-147.16;100.00;58666.56;7397341;19;20080;-70
2023/08/16 05:22:53;;;;;;;14.82;11.32;;;;;;;-147.16;100.00;58666.56;7396490;19;20031;-68
2023/08/16 05:25:24;;;;;;;11.73;10.57;;;;;;;-147.16;100.00;58666.56;7402406;19;20082;-68
2023/08/16 05:27:52;;;;;;;12.52;10.57;;;;;;;-147.16;100.00;58666.56;7409429;19;20019;-68
2023/08/16 05:30:21;;;;;;;13.52;11.73;;;;;;;-147.16;100.00;58666.56;7407445;19;20028;-68
2023/08/16 05:32:49;;;;;;;13.45;12.05;;;;;;;-147.16;100.00;58666.56;7406898;19;20010;-67
2023/08/16 05:35:18;;;;;;;13.38;12.00;;;;;;;-147.16;100.00;58666.56;7407035;19;20071;-67
2023/08/16 05:37:46;;;;;;;12.40;11.20;;;;;;;-147.16;100.00;58666.56;7402203;19;20014;-68
2023/08/16 05:40:15;;;;;;;14.15;12.55;;;;;;;-147.16;100.00;58666.56;7402520;19;20010;-67
2023/08/16 05:42:46;;;;;;;14.25;11.95;;;;;;;-147.16;100.00;58666.56;7407872;19;20018;-67
2023/08/16 05:45:15;;;;;;;13.75;11.75;;;;;;;-147.16;100.00;58666.56;7408573;19;20023;-67
2023/08/16 05:47:43;;;;;;;13.68;11.10;;;;;;;-147.16;100.00;58666.56;7408228;19;20014;-66
2023/08/16 05:50:12;;;;;;;12.57;11.20;;;;;;;-147.16;100.00;58666.56;7407286;19;20006;-65
2023/08/16 05:52:40;;;;;;;11.57;10.40;;;;;;;-147.16;100.00;58666.56;7406872;19;20021;-67
2023/08/16 05:55:10;;;;;;;14.48;11.50;;;;;;;-147.16;100.00;58666.56;7407830;19;20006;-67
2023/08/16 05:57:38;;;;;;;11.82;10.73;;;;;;;-147.16;100.00;58666.56;7406707;19;20014;-67
2023/08/16 06:00:10;;;;;;;12.82;10.15;;;;;;;-147.16;100.00;58666.56;7406284;19;20027;-66
2023/08/16 06:02:39;;;;;;;14.43;10.32;;;;;;;-147.16;100.00;58666.56;7407332;19;20006;-67
2023/08/16 06:05:09;;;;;;;11.20;9.98;;;;;;;-147.16;100.00;58666.56;7408416;19;20035;-67
2023/08/16 06:07:38;;;;;;;10.93;8.50;;;;;;;-147.16;100.00;58666.56;7405733;19;20015;-67
2023/08/16 06:10:07;;;;;;;9.30;8.27;;;;;;;-147.16;100.00;58666.56;7407225;19;20023;-66
2023/08/16 06:12:36;;;;;;;8.60;7.70;;;;;;;-147.16;100.00;58666.56;7403752;19;20009;-67
2023/08/16 06:15:11;;;;;;;9.88;7.32;;;;;;;-147.16;100.00;58666.56;7401214;19;20007;-66
2023/08/16 06:17:43;;;;;;;8.68;7.68;;;;;;;-147.16;100.00;58666.56;7394587;19;20011;-66
2023/08/16 06:20:12;;;;;;;8.95;7.30;;;;;;;-147.16;100.00;58666.56;7394566;19;20014;-66
2023/08/16 06:22:47;;;;;;;9.15;7.45;;;;;;;-147.16;100.00;58666.56;7394031;19;20016;-66
2023/08/16 06:25:15;;;;;;;7.78;7.07;;;;;;;-147.16;100.00;58666.56;7395227;19;20078;-66
2023/08/16 06:27:43;;;;;;;8.02;6.53;;;;;;;-147.16;100.00;58666.56;7401927;19;20077;-66
2023/08/16 06:30:14;;;;;;;8.07;7.00;;;;;;;-147.16;100.00;58666.56;7399944;19;20486;-66
2023/08/16 06:32:45;;;;;;;8.05;7.20;;;;;;;-147.16;100.00;58666.56;7400202;19;20430;-66
2023/08/16 06:35:13;;;;;;;8.00;6.47;;;;;;;-147.16;100.00;58666.56;7400832;19;20014;-66
2023/08/16 06:37:41;;;;;;;7.32;6.63;;;;;;;-147.16;100.00;58666.56;7400293;19;20031;-66
2023/08/16 06:40:11;;;;;;;8.35;6.38;;;;;;;-147.16;100.00;58666.56;7399947;19;20013;-67
2023/08/16 06:42:40;;;;;;;7.65;6.85;;;;;;;-147.16;100.00;58666.56;7402535;19;20025;-68
2023/08/16 06:45:10;;;;;;;8.07;6.35;;;;;;;-147.16;100.00;58666.56;7399660;19;20031;-70
2023/08/16 06:47:45;;;;;;;6.55;5.93;;;;;;;-147.16;100.00;58666.56;7400944;19;20049;-71
2023/08/16 06:50:16;;;;;;;7.80;6.00;;;;;;;-147.16;100.00;58666.56;7400666;19;20007;-69
2023/08/16 06:52:45;;;;;;;7.25;6.10;;;;;;;-147.16;100.00;58666.56;7399813;19;20401;-70
2023/08/16 06:55:13;;;;;;;12.10;5.90;;;;;;;-147.16;100.00;58666.56;7405086;19;20010;-71
2023/08/16 06:57:42;;;;;;;7.82;5.72;;;;;;;-147.16;100.00;58666.56;7411818;19;20035;-71
2023/08/16 07:00:11;;;;;;;9.40;5.82;;;;;;;-147.16;100.00;58666.56;7407982;19;20019;-71
2023/08/16 07:02:40;;;;;;;7.38;6.07;;;;;;;-147.16;100.00;58666.56;7411868;19;20037;-71
2023/08/16 07:05:11;;;;;;;6.65;5.53;;;;;;;-147.16;100.00;58666.56;7405519;19;20028;-71
2023/08/16 07:07:43;;;;;;;8.85;5.75;;;;;;;-147.16;100.00;58666.56;7401472;19;20045;-72
2023/08/16 07:10:12;;;;;;;7.50;5.47;;;;;;;-147.16;100.00;58666.56;7400483;19;20018;-72
2023/08/16 07:12:40;;;;;;;7.55;5.72;;;;;;;-147.16;100.00;58666.56;7404787;19;20023;-73
2023/08/16 07:15:11;;;;;;;6.35;4.95;;;;;;;-147.16;100.00;58666.56;7401011;19;20037;-71
2023/08/16 07:17:40;;;;;;;5.22;4.80;;;;;;;-147.16;100.00;58666.56;7400867;19;20018;-72
2023/08/16 07:20:10;;;;;;;5.38;4.65;;;;;;;-147.16;100.00;58666.56;7405935;19;20010;-71
2023/08/16 07:22:41;;;;;;;6.97;5.10;;;;;;;-147.16;100.00;58666.56;7403950;19;20011;-71
2023/08/16 07:25:12;;;;;;;6.13;4.40;;;;;;;-147.16;100.00;58666.56;7401270;19;20062;-71
2023/08/16 07:27:41;;;;;;;6.07;4.53;;;;;;;-147.16;100.00;58666.56;7398400;19;20037;-71
2023/08/16 07:30:10;;;;;;;4.63;4.10;;;;;;;-147.16;100.00;58666.56;7398636;19;20077;-71
2023/08/16 07:32:38;;;;;;;5.45;4.10;;;;;;;-147.16;100.00;58666.56;7397972;19;20023;-72
2023/08/16 07:35:08;;;;;;;6.03;5.18;;;;;;;-147.16;100.00;58666.56;7398837;19;20083;-71
2023/08/16 07:37:36;;;;;;;5.40;4.07;;;;;;;-147.16;100.00;58666.56;7398146;19;20015;-71
2023/08/16 07:40:08;;;;;;;5.60;4.80;;;;;;;-147.16;100.00;58666.56;7398398;19;20074;-72
2023/08/16 07:42:37;;;;;;;3.97;3.63;;;;;;;-147.16;100.00;58666.56;7397963;19;20015;-72
2023/08/16 07:45:06;;;;;;;4.43;3.90;;;;;;;-147.16;100.00;58666.56;7400830;19;20086;-71
2023/08/16 07:47:35;;;;;;;6.25;4.28;;;;;;;-147.16;100.00;58666.56;7397579;19;20074;-70
2023/08/16 07:50:03;;;;;;;6.18;4.13;;;;;;;-147.16;100.00;58666.56;7398328;19;20015;-71
2023/08/16 07:52:32;;;;;;;8.43;5.10;;;;;;;-147.16;100.00;58666.56;7397530;19;20017;-72
2023/08/16 07:55:01;;;;;;;5.43;4.30;;;;;;;-147.16;100.00;58666.56;7400482;19;20022;-71
2023/08/16 07:57:32;;;;;;;5.38;3.67;;;;;;;-147.16;100.00;58666.56;7398004;19;20014;-71
2023/08/16 08:00:01;;;;;;;4.97;4.47;;;;;;;-147.16;100.00;58666.56;7398093;19;20089;-71
2023/08/16 08:02:31;;;;;;;4.50;3.83;;;;;;;-147.16;100.00;58666.56;7399491;19;20010;-71
2023/08/16 08:05:01;;;;;;;8.30;4.07;;;;;;;-147.16;100.00;58666.56;7399032;19;20078;-71
2023/08/16 08:07:30;;;;;;;4.03;3.63;;;;;;;-147.16;100.00;58666.56;7400131;19;20114;-71
2023/08/16 08:09:59;;;;;;;4.97;4.15;;;;;;;-147.16;100.00;58666.56;7398226;19;20028;-72
2023/08/16 08:12:28;;;;;;;4.20;3.53;;;;;;;-147.16;100.00;58666.56;7397037;19;20544;-71
2023/08/16 08:14:59;;;;;;;4.15;3.75;;;;;;;-147.16;100.00;58666.56;7397131;19;20028;-70
2023/08/16 08:17:28;;;;;;;5.05;3.83;;;;;;;-147.16;100.00;58666.56;7397046;19;20014;-71
2023/08/16 08:19:56;;;;;;;4.90;3.97;;;;;;;-147.16;100.00;58666.56;7399041;19;20017;-71
2023/08/16 08:22:25;;;;;;;4.57;3.78;;;;;;;-147.16;100.00;58666.56;7399265;19;20086;-71
2023/08/16 08:24:53;;;;;;;4.70;3.53;;;;;;;-147.16;100.00;58666.56;7398375;19;20070;-71
2023/08/16 08:27:22;;;;;;;4.78;3.63;;;;;;;-147.16;100.00;58666.56;7396005;19;20448;-71
2023/08/16 08:29:50;;;;;;;4.20;3.80;;;;;;;-147.16;100.00;58666.56;7396274;19;20018;-71
2023/08/16 08:32:21;;;;;;;4.43;4.03;;;;;;;-147.16;100.00;58666.56;7395992;19;20508;-72
2023/08/16 08:34:50;;;;;;;4.85;3.45;;;;;;;-147.16;100.00;58666.56;7395795;19;20011;-71
2023/08/16 08:37:18;;;;;;;3.53;3.22;;;;;;;-147.16;100.00;58666.56;7395868;19;20086;-71
2023/08/16 08:39:46;;;;;;;5.40;3.58;;;;;;;-147.16;100.00;58666.56;7397762;19;20481;-71
2023/08/16 08:42:15;;;;;;;4.88;3.85;;;;;;;-147.16;100.00;58666.56;7398272;19;20079;-71
2023/08/16 08:44:45;;;;;;;3.72;3.33;;;;;;;-147.16;100.00;58666.56;7396199;19;20070;-70
2023/08/16 08:47:14;;;;;;;4.30;3.90;;;;;;;-147.16;100.00;58666.56;7395923;19;20089;-71
2023/08/16 08:49:45;;;;;;;3.80;3.40;;;;;;;-147.16;100.00;58666.56;7393789;19;20090;-70
2023/08/16 08:52:15;;;;;;;3.53;3.17;;;;;;;-147.16;100.00;58666.56;7395574;19;20070;-70
2023/08/16 08:54:44;;;;;;;3.03;2.78;;;;;;;-147.16;100.00;58666.56;7395560;19;20025;-70
2023/08/16 08:57:13;;;;;;;4.00;2.80;;;;;;;-147.16;100.00;58666.56;7394833;19;20393;-70
2023/08/16 08:59:49;;;;;;;4.00;3.17;;;;;;;-147.16;100.00;58666.56;7394849;19;20074;-72
2023/08/16 09:02:20;;;;;;;4.45;3.17;;;;;;;-147.16;100.00;58666.56;7397070;19;20029;-70
2023/08/16 09:04:53;;;;;;;5.35;4.20;;;;;;;-147.16;100.00;58666.56;7395184;19;20457;-70
2023/08/16 09:07:23;;;;;;;6.10;4.13;;;;;;;-147.16;100.00;58666.56;7397074;19;20015;-70
2023/08/16 09:09:52;;;;;;;4.30;3.88;;;;;;;-147.16;100.00;58666.56;7398141;19;20078;-71
2023/08/16 09:12:20;;;;;;;16.63;10.90;;;;;;;-147.16;100.00;58666.56;7394870;19;20086;-71
2023/08/16 09:14:49;;;;;;;5.07;3.90;;;;;;;-147.16;100.00;58666.56;7395787;19;20014;-70
2023/08/16 09:17:18;;;;;;;3.80;3.40;;;;;;;-147.16;100.00;58666.56;7394749;19;20027;-69
2023/08/16 09:19:47;;;;;;;7.13;4.43;;;;;;;-147.16;100.00;58666.56;7395331;19;20015;-70
2023/08/16 09:22:19;;;;;;;3.70;3.38;;;;;;;-147.16;100.00;58666.56;7395410;19;20019;-70
2023/08/16 09:24:51;;;;;;;5.00;3.80;;;;;;;-147.16;100.00;58666.56;7395400;19;20074;-71
2023/08/16 09:27:22;;;;;;;6.80;4.10;;;;;;;-147.16;100.00;58666.56;7394868;19;20477;-71
2023/08/16 09:29:55;;;;;;;6.03;3.17;;;;;;;-147.16;100.00;58666.56;7396622;19;20369;-71
2023/08/16 09:32:24;;;;;;;4.47;3.77;;;;;;;-147.16;100.00;58666.56;7395517;19;20409;-74
2023/08/16 09:34:55;;;;;;;3.67;3.08;;;;;;;-147.16;100.00;58666.56;7395084;19;20928;-72
2023/08/16 09:37:27;;;;;;;4.22;3.35;;;;;;;-147.16;100.00;58666.56;7396657;19;20070;-71
2023/08/16 09:39:58;;;;;;;4.28;3.63;;;;;;;-147.16;100.00;58666.56;7396782;19;20182;-71
2023/08/16 09:42:34;;;;;;;3.65;3.30;;;;;;;-147.16;100.00;58666.56;7394550;19;20011;-71
2023/08/16 09:45:02;;;;;;;3.15;2.85;;;;;;;-147.16;100.00;58666.56;7394159;19;20019;-70
2023/08/16 09:47:31;;;;;;;6.45;4.95;;;;;;;-147.16;100.00;58666.56;7395816;19;20014;-71
2023/08/16 09:50:00;;;;;;;3.45;3.15;;;;;;;-147.16;100.00;58666.56;7394755;19;20485;-71
2023/08/16 09:52:31;;;;;;;4.55;3.60;;;;;;;-147.16;100.00;58666.56;7394213;19;20012;-72
2023/08/16 09:55:01;;;;;;;5.97;5.38;;;;;;;-147.16;100.00;58666.56;7394892;19;20014;-70
2023/08/16 09:57:30;;;;;;;4.20;3.80;;;;;;;-147.16;100.00;58666.56;7393953;19;20015;-71
2023/08/16 09:59:59;;;;;;;4.97;4.32;;;;;;;-147.16;100.00;58666.56;7392497;19;20086;-72
2023/08/16 10:02:29;;;;;;;7.05;5.53;;;;;;;-147.16;100.00;58666.56;7394576;19;20046;-72
2023/08/16 10:04:59;;;;;;;8.35;6.32;;;;;;;-147.16;100.00;58666.56;7394572;19;20006;-72
2023/08/16 10:07:31;;;;;;;12.13;8.52;;;;;;;-147.16;100.00;58666.56;7395218;19;20032;-71
2023/08/16 10:10:01;;;;;;;3.67;3.33;;;;;;;-147.16;100.00;58666.56;7395032;19;20083;-71
2023/08/16 10:12:30;;;;;;;6.35;4.80;;;;;;;-147.16;100.00;58666.56;7397671;19;20006;-71
2023/08/16 10:14:59;;;;;;;4.13;3.55;;;;;;;-147.16;100.00;58666.56;7400469;19;20024;-71
2023/08/16 10:17:28;;;;;;;3.88;3.15;;;;;;;-147.16;100.00;58666.56;7399756;19;20019;-70
2023/08/16 10:20:01;;;;;;;3.42;2.90;;;;;;;-147.16;100.00;58666.56;7398592;19;20480;-70
2023/08/16 10:22:38;;;;;;;3.53;3.22;;;;;;;-147.16;100.00;58666.56;7398891;19;20014;-71
2023/08/16 10:25:11;;;;;;;5.55;3.10;;;;;;;-147.16;100.00;58666.56;7396948;19;20078;-71
2023/08/16 10:27:41;;;;;;;5.40;3.70;;;;;;;-147.16;100.00;58666.56;7395804;19;20022;-70
2023/08/16 10:30:14;;;;;;;3.10;2.80;;;;;;;-147.16;100.00;58666.56;7397676;19;20014;-71
2023/08/16 10:32:47;;;;;;;4.25;2.72;;;;;;;-147.16;100.00;58666.56;7397374;19;20364;-71
2023/08/16 10:35:16;;;;;;;4.15;2.80;;;;;;;-147.16;100.00;58666.56;7399770;19;20018;-71
2023/08/16 10:37:49;;;;;;;4.28;3.10;;;;;;;-147.16;100.00;58666.56;7397902;19;20027;-71
2023/08/16 10:40:19;;;;;;;4.40;3.30;;;;;;;-147.16;100.00;58666.56;7394187;19;20595;-72
2023/08/16 10:42:55;;;;;;;4.45;4.05;;;;;;;-147.16;100.00;58666.56;7392921;19;20018;-70
2023/08/16 10:45:25;;;;;;;2.80;2.58;;;;;;;-147.16;100.00;58666.56;7394912;19;20027;-71
2023/08/16 10:47:53;;;;;;;6.03;4.30;;;;;;;-147.16;100.00;58666.56;7392437;19;20011;-71
2023/08/16 10:50:22;;;;;;;5.18;2.92;;;;;;;-147.16;100.00;58666.56;7392673;19;20090;-71
2023/08/16 10:52:53;;;;;;;3.90;2.58;;;;;;;-147.16;100.00;58666.56;7393691;19;20417;-71
2023/08/16 10:55:27;;;;;;;3.22;2.38;;;;;;;-147.16;100.00;58666.56;7392422;19;20014;-71
2023/08/16 10:57:56;;;;;;;4.78;3.05;;;;;;;-147.16;100.00;58666.56;7392235;19;20018;-70
2023/08/16 11:00:32;;;;;;;3.00;2.70;;;;;;;-147.16;100.00;58666.56;7392089;19;20086;-70
2023/08/16 11:03:04;;;;;;;4.25;2.58;;;;;;;-147.16;100.00;58666.56;7393230;19;20027;-72
2023/08/16 11:05:33;;;;;;;2.58;2.38;;;;;;;-147.16;100.00;58666.56;7393262;19;20014;-72
2023/08/16 11:08:12;;;;;;;3.40;2.92;;;;;;;-147.16;100.00;58666.56;7392546;19;20021;-71
2023/08/16 11:10:40;;;;;;;3.22;2.63;;;;;;;-147.16;100.00;58666.56;7395051;19;20043;-72
2023/08/16 11:13:11;;;;;;;4.00;3.35;;;;;;;-147.16;100.00;58666.56;7398502;19;20082;-70
2023/08/16 11:15:41;;;;;;;3.75;3.40;;;;;;;-147.16;100.00;58666.56;7398879;19;20022;-72
2023/08/16 11:18:10;;;;;;;3.40;3.00;;;;;;;-147.16;100.00;58666.56;7398960;19;20090;-72